Airfield :
LOGIN :

Register | Disclaimer

   EN    FR    IT 

 










Legend :    VFR   Marginal VFR   IFR   Intensive IFR   Very Intensive IFR
Visi :
Ceiling :
>= 8 km
>= 3000ft
5 to 8 km
1000 to 3000 ft
1500m to 5 km
500 to 1000 ft
800 to 1500m
200 to 500 ft
< 800m
< 200 ft
Symbols :   Thunderstorms  Fog  Heavy snow  Heavy precipitations  Wind > 20 kt
SIGMETs :     Misc.  Thunderstorms  Icing  Turbulence  Mountain Waves  Volcanic Ashes







- Airport Elevation : 277 ft
- IATA code : JER
- Download approach charts


EGJJ - Jersey

CURRENT METAR :
  • 240820Z 23014KT 9999 FEW007 BKN012 16/14 Q1019 TEMPO BKN008

EXPIRED METARs :
  • 240750Z 24013KT 9999 FEW005 BKN009 16/14 Q1019 TEMPO BKN006
  • 240720Z 24013KT 9999 BKN010 16/14 Q1019 TEMPO BKN007
  • 240650Z 24012KT 9999 BKN008 16/14 Q1019 TEMPO BKN006
  • 240620Z 24011KT 9999 BKN007 16/14 Q1019 TEMPO SCT007
  • 240550Z 24011KT 9999 BKN007 15/14 Q1019 TEMPO SCT007

TAF TAF EGJJ
Valid from the 24 at 09:00 until the 24 at 18:00 UTC


240811Z 2409/2418 25015KT 9999 BKN015
TEMPO 2409/2418 BKN006
PROB40
TEMPO 2417/2418 5000 -RADZ BKN004
ATIS : +44 1534 498 073
No reported NOTAMs for that airfield.



MET'MAP, your aeronautical weather chart ! - Copyright ORBIFLY December 2007 - Disclaimer

ORBIFLY MET'MAP TEAM :

Programming & Development : Alexandra Zaïnal
Concept & Development : Baudouin d'Aumeries
Co-Development & Prog : Marc-Olivier Méhu
Technical & hardware support : Manuel Goepfert

Contact : metmap@orbifly.com




SOURCES & CREDITS :

   NOAA